MAPA DE AEROPUERTO

INFORMACIÓN METAR y TAF


Deprecated: The each() function is deprecated. This message will be suppressed on further calls in /home/customer/www/clickair-va.com/public_html/VAM/vam/helpers/get_metar.php on line 20
METAR FOR EPWA
ADDS - METARS form results

(1020 UTC 13 January 2023)
Data provider http://aviationweather.gov/metar/data/
 
METAR text: EPWA 131000Z 19007KT 9999 BKN038 07/04 Q1010 NOSIG
Conditions at: EPWA (WARSAW/OKECIE , PL) observed 1000 UTC 13 January 2023
Temperature: 7.0°C (45°F)
Dewpoint: 4.0°C (39°F) [RH = 81%]
Pressure (altimeter): 29.82 inches Hg (1010.0 mb)
Winds: from the S (190 degrees) at 8 MPH (7 knots; 3.6 m/s)
Visibility: 6 or more miles (10+ km)
Ceiling: 3800 feet AGL
Clouds: broken clouds at 3800 feet AGL
Weather: no significant weather observed at this time

METAR text: EPWA 130930Z 19008KT 9999 BKN038 07/05 Q1010 NOSIG
Conditions at: EPWA (WARSAW/OKECIE , PL) observed 0930 UTC 13 January 2023
Temperature: 7.0°C (45°F)
Dewpoint: 5.0°C (41°F) [RH = 87%]
Pressure (altimeter): 29.82 inches Hg (1010.0 mb)
Winds: from the S (190 degrees) at 9 MPH (8 knots; 4.1 m/s)
Visibility: 6 or more miles (10+ km)
Ceiling: 3800 feet AGL
Clouds: broken clouds at 3800 feet AGL
Weather: no significant weather observed at this time

Forecast for: EPWA (WARSAW/OKECIE , PL)
Text: TAF EPWA 130830Z 1309/1409 20010KT 9999 BKN025
Forecast period: 0900 UTC 13 January 2023 to 0900 UTC 14 January 2023
Forecast type: FROM: standard forecast or significant change
Winds: from the SSW (200 degrees) at 12 MPH (10 knots; 5.1 m/s)
Visibility: 6 or more miles (10+ km)
Ceiling: 2500 feet AGL
Clouds: broken clouds at 2500 feet AGL
Weather: no significant weather forecast for this period
Text: TEMPO 1309/1324 -RA BKN007 BKN014
Forecast period: 0900 UTC 13 January 2023 to 0000 UTC 14 January 2023
Forecast type: TEMPORARY: The following changes expected for less than half the time period
Visibility: missing
Ceiling: 700 feet AGL
Clouds: broken clouds at 700 feet AGL
broken clouds at 1400 feet AGL
Weather: -RA  (light rain)